createdAt,value
2022-11-10T00:00:25.493Z,5.40
2022-11-10T00:03:13.754Z,4.10
2022-11-10T00:06:27.412Z,3.03
2022-11-10T00:09:14.945Z,4.13
2022-11-10T00:12:03.732Z,3.70
2022-11-10T00:15:08.550Z,3.60
2022-11-10T00:17:56.245Z,3.53
2022-11-10T00:20:43.474Z,3.73
2022-11-10T00:23:30.977Z,5.03
2022-11-10T00:26:22.173Z,5.87
2022-11-10T00:29:13.865Z,2.83
2022-11-10T00:32:01.199Z,3.73
2022-11-10T00:34:48.256Z,4.97
2022-11-10T00:37:35.958Z,5.13
2022-11-10T00:40:23.406Z,4.27
2022-11-10T00:43:11.018Z,3.33
2022-11-10T00:45:59.773Z,2.03
2022-11-10T00:48:47.117Z,5.00
2022-11-10T00:51:34.354Z,3.40
2022-11-10T00:54:22.095Z,5.33
2022-11-10T00:57:09.661Z,3.00
2022-11-10T00:59:56.717Z,2.90
2022-11-10T01:02:45.805Z,3.43
2022-11-10T01:05:37.430Z,6.20
2022-11-10T01:08:24.947Z,4.20
2022-11-10T01:11:16.571Z,2.87
2022-11-10T01:14:03.792Z,2.87
2022-11-10T01:16:50.971Z,3.47
2022-11-10T01:19:39.328Z,4.47
2022-11-10T01:22:26.525Z,2.93
2022-11-10T01:25:14.031Z,6.43
2022-11-10T01:28:01.079Z,3.23
2022-11-10T01:30:48.068Z,4.07
2022-11-10T01:33:36.533Z,5.77
2022-11-10T01:36:25.541Z,4.67
2022-11-10T01:39:12.910Z,3.27
2022-11-10T01:41:59.946Z,5.40
2022-11-10T01:45:42.713Z,4.53
2022-11-10T01:48:36.687Z,3.37
2022-11-10T01:51:31.126Z,3.73
2022-11-10T01:54:26.482Z,2.17
2022-11-10T01:57:16.520Z,3.93
2022-11-10T02:00:05.365Z,2.63
2022-11-10T02:03:02.685Z,4.37
2022-11-10T02:05:52.143Z,5.17
2022-11-10T02:08:42.342Z,4.43
2022-11-10T02:11:30.581Z,6.53
2022-11-10T02:14:18.128Z,6.10
2022-11-10T02:17:05.431Z,1.93
2022-11-10T02:19:53.706Z,4.30
2022-11-10T02:22:42.580Z,2.63
2022-11-10T02:25:34.332Z,2.90
2022-11-10T02:28:22.900Z,3.63
2022-11-10T02:31:10.521Z,5.07
2022-11-10T02:33:57.570Z,3.67
2022-11-10T02:36:44.948Z,3.47
2022-11-10T02:39:33.798Z,5.07
2022-11-10T02:42:21.143Z,3.30
2022-11-10T02:45:09.525Z,4.77
2022-11-10T02:47:56.509Z,2.70
2022-11-10T02:50:43.771Z,1.80
2022-11-10T02:53:31.279Z,3.73
2022-11-10T02:56:19.663Z,3.83
2022-11-10T02:59:06.707Z,6.13
2022-11-10T03:01:53.655Z,4.67
2022-11-10T03:04:41.058Z,3.37
2022-11-10T03:07:28.365Z,5.90
2022-11-10T03:10:15.494Z,4.00
2022-11-10T03:13:04.538Z,5.20
2022-11-10T03:15:52.415Z,4.10
2022-11-10T03:18:39.703Z,5.83
2022-11-10T03:21:26.649Z,4.70
2022-11-10T03:24:14.104Z,3.90
2022-11-10T03:27:01.283Z,2.37
2022-11-10T03:29:49.651Z,2.00
2022-11-10T03:32:36.903Z,5.93
2022-11-10T03:35:24.143Z,3.20
2022-11-10T03:38:11.342Z,3.73
2022-11-10T03:44:06.239Z,3.27
2022-11-10T03:46:55.138Z,6.20
2022-11-10T03:49:42.807Z,4.03
2022-11-10T03:52:31.534Z,5.00
2022-11-10T03:55:28.086Z,3.73
2022-11-10T03:58:15.698Z,5.40
2022-11-10T04:01:03.190Z,4.83
2022-11-10T04:03:53.234Z,3.47
2022-11-10T04:06:58.314Z,6.70
2022-11-10T04:09:45.980Z,3.03
2022-11-10T04:12:50.833Z,4.40
2022-11-10T04:15:43.668Z,12.83
2022-11-10T04:18:31.372Z,3.77
2022-11-10T04:21:21.397Z,5.93
2022-11-10T04:24:10.028Z,6.13
2022-11-10T04:26:59.299Z,8.57
2022-11-10T04:29:46.718Z,4.50
2022-11-10T04:32:33.983Z,8.03
2022-11-10T04:35:21.409Z,5.00
2022-11-10T04:38:11.901Z,3.70
2022-11-10T04:40:59.725Z,4.60
2022-11-10T04:43:48.064Z,4.63
2022-11-10T04:46:38.213Z,6.10
2022-11-10T04:49:26.747Z,3.67
2022-11-10T04:52:15.196Z,6.30
2022-11-10T04:55:05.462Z,4.30
2022-11-10T04:57:53.172Z,6.67
2022-11-10T05:00:42.009Z,4.67
2022-11-10T05:03:29.613Z,3.40
2022-11-10T05:06:17.063Z,5.13
2022-11-10T05:09:05.634Z,3.37
2022-11-10T05:11:54.120Z,3.10
2022-11-10T05:14:41.760Z,5.40
2022-11-10T05:17:29.096Z,4.17
2022-11-10T05:20:16.974Z,4.27
2022-11-10T05:23:24.532Z,3.77
2022-11-10T05:26:15.353Z,6.57
2022-11-10T05:29:04.069Z,5.33
2022-11-10T05:31:51.797Z,4.27
2022-11-10T05:34:40.625Z,4.37
2022-11-10T05:37:30.457Z,5.30
2022-11-10T05:40:19.095Z,6.10
2022-11-10T05:43:07.390Z,8.07
2022-11-10T05:45:56.499Z,6.70
2022-11-10T05:48:44.550Z,4.63
2022-11-10T05:51:33.003Z,10.77
2022-11-10T05:54:20.363Z,10.10
2022-11-10T05:57:07.926Z,9.93
2022-11-10T05:59:55.478Z,9.60
2022-11-10T06:02:44.068Z,13.33
2022-11-10T06:05:34.134Z,11.67
2022-11-10T06:08:21.261Z,8.13
2022-11-10T06:11:08.258Z,7.07
2022-11-10T06:13:55.442Z,8.20
2022-11-10T06:16:42.996Z,7.50
2022-11-10T06:19:31.998Z,5.60
2022-11-10T06:22:19.550Z,8.13
2022-11-10T06:25:08.197Z,6.03
2022-11-10T06:27:55.634Z,6.67
2022-11-10T06:30:43.020Z,7.70
2022-11-10T06:33:31.526Z,7.50
2022-11-10T06:36:19.922Z,8.70
2022-11-10T06:39:07.087Z,11.87
2022-11-10T06:41:54.292Z,8.37
2022-11-10T06:44:41.394Z,10.30
2022-11-10T06:47:29.783Z,9.20
2022-11-10T06:50:17.145Z,7.57
2022-11-10T06:53:06.403Z,8.50
2022-11-10T06:55:53.955Z,10.53
2022-11-10T06:58:41.270Z,14.30
2022-11-10T07:01:28.723Z,9.93
2022-11-10T07:04:20.729Z,9.17
2022-11-10T07:07:08.672Z,10.43
2022-11-10T07:09:57.361Z,9.83
2022-11-10T07:12:44.927Z,10.97
2022-11-10T07:15:33.675Z,9.10
2022-11-10T07:18:21.124Z,6.70
2022-11-10T07:21:08.608Z,12.33
2022-11-10T07:23:56.018Z,10.00
2022-11-10T07:26:44.530Z,8.90
2022-11-10T07:29:32.211Z,8.90
2022-11-10T07:32:19.788Z,10.40
2022-11-10T07:35:07.284Z,12.37
2022-11-10T07:37:54.951Z,8.57
2022-11-10T07:40:42.305Z,12.63
2022-11-10T07:43:30.919Z,9.23
2022-11-10T07:46:18.276Z,6.83
2022-11-10T07:49:05.325Z,10.93
2022-11-10T07:51:52.441Z,9.47
2022-11-10T07:54:39.426Z,10.60
2022-11-10T07:57:26.633Z,7.70
2022-11-10T08:00:18.387Z,10.60
2022-11-10T08:03:08.099Z,6.30
2022-11-10T08:05:55.432Z,9.23
2022-11-10T08:08:42.833Z,8.13
2022-11-10T08:11:30.206Z,8.07
2022-11-10T08:14:17.806Z,6.90
2022-11-10T08:17:06.216Z,6.43
2022-11-10T08:19:53.469Z,7.67
2022-11-10T08:22:40.872Z,6.03
2022-11-10T08:25:34.180Z,9.17
2022-11-10T08:28:22.678Z,6.87
2022-11-10T08:31:09.988Z,7.30
2022-11-10T08:33:58.662Z,6.73
2022-11-10T08:36:46.155Z,9.10
2022-11-10T08:39:40.295Z,5.57
2022-11-10T08:42:27.858Z,5.30
2022-11-10T08:45:16.753Z,5.90
2022-11-10T08:48:06.450Z,5.07
2022-11-10T08:50:55.204Z,7.73
2022-11-10T08:53:42.449Z,7.30
2022-11-10T08:56:29.839Z,5.67
2022-11-10T08:59:18.404Z,8.43
2022-11-10T09:02:05.930Z,10.63
2022-11-10T09:04:53.612Z,6.50
2022-11-10T09:07:51.205Z,8.20
2022-11-10T09:10:42.402Z,7.33
2022-11-10T09:13:30.603Z,6.43
2022-11-10T09:16:19.075Z,5.33
2022-11-10T09:19:06.742Z,5.30
2022-11-10T09:21:54.399Z,7.67
2022-11-10T09:24:42.854Z,6.67
2022-11-10T09:27:29.869Z,5.73
2022-11-10T09:30:18.409Z,9.57
2022-11-10T09:33:05.834Z,8.13
2022-11-10T09:35:57.503Z,8.03
2022-11-10T09:38:45.063Z,11.10
2022-11-10T09:41:34.706Z,7.73
2022-11-10T09:44:28.375Z,5.00
2022-11-10T09:47:50.764Z,4.57
2022-11-10T09:50:48.193Z,6.60
2022-11-10T09:53:42.828Z,8.10
2022-11-10T09:56:36.350Z,6.50
2022-11-10T09:59:29.510Z,13.97
2022-11-10T10:02:30.819Z,9.23
2022-11-10T10:05:52.726Z,4.77
2022-11-10T10:08:58.683Z,9.53
2022-11-10T10:11:57.873Z,7.73
2022-11-10T10:15:14.179Z,8.93
2022-11-10T10:18:24.759Z,6.30
2022-11-10T10:21:32.119Z,10.53
2022-11-10T10:24:27.659Z,4.07
2022-11-10T10:27:24.231Z,5.60
2022-11-10T10:30:17.844Z,5.73
2022-11-10T10:33:17.596Z,3.83
2022-11-10T10:36:13.566Z,5.43
2022-11-10T10:39:08.203Z,6.17
2022-11-10T10:41:55.665Z,5.80
2022-11-10T10:45:15.003Z,10.90
2022-11-10T10:48:02.687Z,7.07
2022-11-10T10:50:50.529Z,5.60
2022-11-10T10:53:48.250Z,9.03
2022-11-10T10:56:36.200Z,8.70
2022-11-10T10:59:25.140Z,4.10
2022-11-10T11:02:28.257Z,7.73
2022-11-10T11:05:19.162Z,6.33
2022-11-10T11:08:07.146Z,6.63
2022-11-10T11:10:54.496Z,5.63
2022-11-10T11:13:41.620Z,8.03
2022-11-10T11:16:28.460Z,6.60
2022-11-10T11:19:17.777Z,7.17
2022-11-10T11:22:51.510Z,8.67
2022-11-10T11:25:45.207Z,6.47
2022-11-10T11:28:46.240Z,5.50
2022-11-10T11:31:48.084Z,8.70
2022-11-10T11:34:48.714Z,6.87
2022-11-10T11:37:49.367Z,6.97
2022-11-10T11:40:49.445Z,4.87
2022-11-10T11:44:19.234Z,7.60
2022-11-10T11:47:32.821Z,7.83
2022-11-10T11:50:33.468Z,5.50
2022-11-10T11:53:45.248Z,4.93
2022-11-10T11:56:39.260Z,7.37
2022-11-10T11:59:58.292Z,4.93
2022-11-10T12:03:21.889Z,4.30
2022-11-10T12:06:29.128Z,6.50
2022-11-10T12:18:12.997Z,6.27
2022-11-10T12:21:16.943Z,8.80
2022-11-10T12:24:33.033Z,6.23
2022-11-10T12:27:27.036Z,6.83
2022-11-10T12:30:18.023Z,6.53
2022-11-10T12:33:17.006Z,6.50
2022-11-10T12:36:09.550Z,4.47
2022-11-10T12:39:04.402Z,5.93
2022-11-10T12:41:59.992Z,8.33
2022-11-10T12:45:03.095Z,3.97
2022-11-10T12:47:51.144Z,4.47
2022-11-10T12:50:54.830Z,7.83
2022-11-10T12:53:44.733Z,6.60
2022-11-10T12:56:40.740Z,6.50
2022-11-10T12:59:35.315Z,6.13
2022-11-10T13:02:33.082Z,5.17
2022-11-10T13:05:38.400Z,6.87
2022-11-10T13:08:33.495Z,5.60
2022-11-10T13:11:34.372Z,4.77
2022-11-10T13:14:26.351Z,8.97
2022-11-10T13:17:55.675Z,6.50
2022-11-10T13:20:55.885Z,6.57
2022-11-10T13:24:25.732Z,8.70
2022-11-10T13:27:15.245Z,4.87
2022-11-10T13:30:02.930Z,6.43
2022-11-10T13:32:50.265Z,5.83
2022-11-10T13:35:55.824Z,3.90
2022-11-10T13:38:46.059Z,13.43
2022-11-10T13:41:35.968Z,8.83
2022-11-10T13:44:27.541Z,9.23
2022-11-10T13:47:54.790Z,3.73
2022-11-10T13:51:02.678Z,13.97
2022-11-10T13:54:14.285Z,6.43
2022-11-10T13:57:28.729Z,8.97
2022-11-10T14:00:30.316Z,8.60
2022-11-10T14:03:57.612Z,5.33
2022-11-10T14:06:51.425Z,4.50
2022-11-10T14:09:41.892Z,7.13
2022-11-10T14:12:40.861Z,4.30
2022-11-10T14:15:43.650Z,6.47
2022-11-10T14:18:42.916Z,7.33
2022-11-10T14:21:39.992Z,9.40
2022-11-10T14:24:32.680Z,10.63
2022-11-10T14:27:27.601Z,8.40
2022-11-10T14:30:26.659Z,3.77
2022-11-10T14:33:16.332Z,7.83
2022-11-10T14:36:09.015Z,11.87
2022-11-10T14:38:58.211Z,5.83
2022-11-10T14:41:51.250Z,21.93
2022-11-10T14:44:39.088Z,6.80
2022-11-10T14:47:31.351Z,13.93
2022-11-10T14:50:23.018Z,11.03
2022-11-10T14:53:25.092Z,11.07
2022-11-10T14:56:20.854Z,21.13
2022-11-10T14:59:14.265Z,13.63
2022-11-10T15:02:03.482Z,8.63
2022-11-10T15:04:53.771Z,7.20
2022-11-10T15:07:42.694Z,12.50
2022-11-10T15:10:45.570Z,9.80
2022-11-10T15:13:39.814Z,6.73
2022-11-10T15:16:29.589Z,7.20
2022-11-10T15:19:31.753Z,10.43
2022-11-10T15:22:30.760Z,13.53
2022-11-10T15:25:23.369Z,15.43
2022-11-10T15:28:30.755Z,9.80
2022-11-10T15:31:26.553Z,7.07
2022-11-10T15:34:41.563Z,8.60
2022-11-10T15:37:34.564Z,6.67
2022-11-10T15:40:37.496Z,8.03
2022-11-10T15:43:29.251Z,7.57
2022-11-10T15:46:20.919Z,10.67
2022-11-10T15:49:14.482Z,15.77
2022-11-10T15:52:05.283Z,9.50
2022-11-10T15:54:54.111Z,15.23
2022-11-10T15:57:41.718Z,6.83
2022-11-10T16:00:29.164Z,12.13
2022-11-10T16:03:20.949Z,10.40
2022-11-10T16:06:11.095Z,7.93
2022-11-10T16:08:58.569Z,7.20
2022-11-10T16:11:47.728Z,7.17
2022-11-10T16:14:35.015Z,10.03
2022-11-10T16:17:22.834Z,8.87
2022-11-10T16:20:16.105Z,13.97
2022-11-10T16:23:03.561Z,17.33
2022-11-10T16:25:55.307Z,22.90
2022-11-10T16:28:47.785Z,28.20
2022-11-10T16:31:35.549Z,17.03
2022-11-10T16:34:23.166Z,21.13
2022-11-10T16:37:14.278Z,15.90
2022-11-10T16:40:01.516Z,16.57
2022-11-10T16:42:49.859Z,16.70
2022-11-10T16:45:39.216Z,18.07
2022-11-10T16:48:32.053Z,15.80
2022-11-10T16:51:19.490Z,12.90
2022-11-10T16:54:06.528Z,12.10
2022-11-10T16:56:53.544Z,13.37
2022-11-10T16:59:40.585Z,15.93
2022-11-10T17:02:35.726Z,12.97
2022-11-10T17:05:23.031Z,10.93
2022-11-10T17:08:22.640Z,12.00
2022-11-10T17:11:11.226Z,11.77
2022-11-10T17:13:58.350Z,11.47
2022-11-10T17:16:48.240Z,12.33
2022-11-10T17:19:37.126Z,10.53
2022-11-10T17:22:26.984Z,11.53
2022-11-10T17:25:27.009Z,10.47
2022-11-10T17:28:16.153Z,14.83
2022-11-10T17:31:04.525Z,9.40
2022-11-10T17:33:52.229Z,9.63
2022-11-10T17:36:41.956Z,10.20
2022-11-10T17:39:30.123Z,8.63
2022-11-10T17:42:17.878Z,8.80
2022-11-10T17:45:07.329Z,9.07
2022-11-10T17:47:55.806Z,9.40
2022-11-10T17:50:48.410Z,10.43
2022-11-10T17:53:37.287Z,9.17
2022-11-10T17:56:24.682Z,10.73
2022-11-10T17:59:12.103Z,8.63
2022-11-10T18:02:01.138Z,23.90
2022-11-10T18:05:14.313Z,19.37
2022-11-10T18:08:01.456Z,19.77
2022-11-10T18:10:53.094Z,18.27
2022-11-10T18:13:42.103Z,13.97
2022-11-10T18:16:29.397Z,10.10
2022-11-10T18:19:16.390Z,12.93
2022-11-10T18:22:03.811Z,12.87
2022-11-10T18:25:11.463Z,9.00
2022-11-10T18:28:09.001Z,11.47
2022-11-10T18:31:08.511Z,10.13
2022-11-10T18:33:59.143Z,11.43
2022-11-10T18:36:47.158Z,15.70
2022-11-10T18:39:34.526Z,11.80
2022-11-10T18:42:21.697Z,10.27
2022-11-10T18:45:13.002Z,10.60
2022-11-10T18:48:04.013Z,10.87
2022-11-10T18:50:56.971Z,13.13
2022-11-10T18:53:46.639Z,11.87
2022-11-10T18:56:35.783Z,11.87
2022-11-10T18:59:24.171Z,11.47
2022-11-10T19:02:15.425Z,12.70
2022-11-10T19:05:03.509Z,10.63
2022-11-10T19:07:51.002Z,10.37
2022-11-10T19:10:47.340Z,12.67
2022-11-10T19:13:37.510Z,13.80
2022-11-10T19:16:24.998Z,12.97
2022-11-10T19:19:13.823Z,18.57
2022-11-10T19:22:08.639Z,11.33
2022-11-10T19:25:11.294Z,27.83
2022-11-10T19:27:59.345Z,35.90
2022-11-10T19:30:46.948Z,19.07
2022-11-10T19:33:46.323Z,20.07
2022-11-10T19:37:00.703Z,19.03
2022-11-10T19:39:55.277Z,23.17
2022-11-10T19:42:42.405Z,16.57
2022-11-10T19:45:37.109Z,17.97
2022-11-10T19:48:24.394Z,16.83
2022-11-10T19:51:13.998Z,12.70
2022-11-10T19:54:05.195Z,14.40
2022-11-10T19:56:52.704Z,16.00
2022-11-10T19:59:41.292Z,11.00
2022-11-10T20:02:28.882Z,13.87
2022-11-10T20:05:21.143Z,10.97
2022-11-10T20:08:22.677Z,13.17
2022-11-10T20:12:12.681Z,12.40
2022-11-10T20:15:05.606Z,12.57
2022-11-10T20:17:53.391Z,14.10
2022-11-10T20:20:46.875Z,11.80
2022-11-10T20:23:36.823Z,10.70
2022-11-10T20:26:26.224Z,12.63
2022-11-10T20:29:14.966Z,12.77
2022-11-10T20:32:02.436Z,11.47
2022-11-10T20:34:50.792Z,10.30
2022-11-10T20:37:38.363Z,13.77
2022-11-10T20:40:43.602Z,11.57
2022-11-10T20:43:36.243Z,9.77
2022-11-10T20:46:52.919Z,9.30
2022-11-10T20:49:32.660Z,9.30
2022-11-10T20:52:20.160Z,9.33
2022-11-10T20:55:08.291Z,10.97
2022-11-10T20:57:57.033Z,10.00
2022-11-10T21:00:46.232Z,8.13
2022-11-10T21:03:37.104Z,9.03
2022-11-10T21:06:24.371Z,12.00
2022-11-10T21:09:13.535Z,7.70
2022-11-10T21:12:32.594Z,11.17
2022-11-10T21:15:21.698Z,9.50
2022-11-10T21:18:08.866Z,11.47
2022-11-10T21:20:57.630Z,12.53
2022-11-10T21:23:45.232Z,9.17
2022-11-10T21:26:34.274Z,10.33
2022-11-10T21:29:21.844Z,8.30
2022-11-10T21:32:09.066Z,6.27
2022-11-10T21:34:56.257Z,10.80
2022-11-10T21:37:45.099Z,10.10
2022-11-10T21:40:32.721Z,10.03
2022-11-10T21:43:20.225Z,7.60
2022-11-10T21:46:07.849Z,10.53
2022-11-10T21:48:55.025Z,10.83
2022-11-10T21:51:42.606Z,8.83
2022-11-10T21:54:31.394Z,7.97
2022-11-10T21:57:18.705Z,10.50
2022-11-10T22:00:07.413Z,12.40
2022-11-10T22:02:59.644Z,13.03
2022-11-10T22:05:47.248Z,11.00
2022-11-10T22:08:34.852Z,8.43
2022-11-10T22:11:40.836Z,7.43
2022-11-10T22:14:45.046Z,8.20
2022-11-10T22:17:50.013Z,10.97
2022-11-10T22:20:37.027Z,12.30
2022-11-10T22:23:44.512Z,10.07
2022-11-10T22:26:33.182Z,7.37
2022-11-10T22:29:20.803Z,12.13
2022-11-10T22:32:07.661Z,7.40
2022-11-10T22:34:54.712Z,6.73
2022-11-10T22:37:42.123Z,5.93
2022-11-10T22:40:46.575Z,6.87
2022-11-10T22:43:52.345Z,5.70
2022-11-10T22:46:41.476Z,7.93
2022-11-10T22:49:28.691Z,6.37
2022-11-10T22:52:16.474Z,9.17
2022-11-10T22:55:03.467Z,4.37
2022-11-10T22:57:55.770Z,10.03
2022-11-10T23:00:47.217Z,6.03
2022-11-10T23:03:35.335Z,19.77
2022-11-10T23:06:24.037Z,7.77
2022-11-10T23:09:11.603Z,7.47
2022-11-10T23:11:59.343Z,5.90
2022-11-10T23:14:47.825Z,4.00
2022-11-10T23:17:36.626Z,6.30
2022-11-10T23:20:24.236Z,7.97
2022-11-10T23:23:11.396Z,4.33
2022-11-10T23:26:00.781Z,7.27
2022-11-10T23:28:48.351Z,6.93
2022-11-10T23:31:35.337Z,8.00
2022-11-10T23:34:24.239Z,7.23
2022-11-10T23:37:11.404Z,6.10
2022-11-10T23:39:58.955Z,8.17
2022-11-10T23:42:47.039Z,10.83
2022-11-10T23:46:04.804Z,5.93
2022-11-10T23:48:42.592Z,7.30
2022-11-10T23:51:31.387Z,4.57
2022-11-10T23:54:19.723Z,5.87
2022-11-10T23:57:06.967Z,8.97
2022-11-10T23:59:54.041Z,5.60
